LEAL/ALC METAR and TAF weather

Enter ICAO airport designator
Station Type Date Time Source
LEAL METAR 2020/07/06 19:30 UTC NOAA

LEAL 061930Z 20003KT 160V240 CAVOK 26/16 Q1015 NOSIG


Station Type Date Time Source
LEAL Decoded METAR 2020/07/06 19:30 UTC NOAA

Alicante / El Altet, Spain (LEAL) 38-17N 000-33W 31M
Jul 06, 2020 - 03:30 PM EDT / 2020.07.06 1930 UTC
Wind: from the SSW (200 degrees) at 3 MPH (3 KT) (direction variable):0
Visibility: greater than 7 mile(s):0
Temperature: 78 F (26 C)
Dew Point: 60 F (16 C)
Relative Humidity: 54%
Pressure (altimeter): 29.97 in. Hg (1015 hPa)
ob: LEAL 061930Z 20003KT 160V240 CAVOK 26/16 Q1015 NOSIG
cycle: 19

Station Type Date Time Source
LEAL TAF 2020/07/06 18:27 UTC NOAA

TAF TAF LEAL 061700Z 0618/0718 VRB03KT 9999 FEW030 TX31/0712Z TN21/0706Z
BECMG 0710/0712 09010KT

Example: see airport list